Lima, Ohio
Current Conditions -  °F | °C
As of 4:53 AM on Saturday 25 Oct 2014 (Local Time) from KAOH Reporting Station
Scattered Clouds Scattered Clouds  
Wind Chill: 51°   Ceiling: Unl
Heat Index: 51°   Visibility: 7mi
Dew Point: 46°   Wind: 6mph
Humidity: 83%   Direction: 210°SSW
Pressure: 29.95"   Gusts: NA
Location:  40.74°N, 84.11°W
Report Text: KAOH 250853Z AUTO 21005KT 7SM SCT095 11/08 A2995 RMK AO2 SLP141 T01060078 58009
Loading
Personal Weather Stations






























Interactive Weather Map New forecast layout! Learn more

10-Day Weather Forecast

Advertisements
Track Severe Weather on mobile